Uttoxeter, United Kingdom
Current Conditions -  °F | °C
As of 6:50 PM on Friday 21 Nov 2014 (Local Time) from EGNX Reporting Station
Moderate Rain Moderate Rain  
Wind Chill: 41°   Ceiling: 700
Heat Index: 46°   Visibility: 2.5mi
Dew Point: 45°   Wind: 13mph
Humidity: 93%   Direction: 110°ESE
Pressure: 29.94"   Gusts: NA
Location:  52.9°N, 1.86°W
Report Text: EGNX 211850Z 11011KT 4000 RA BKN007 08/07 Q1014
Loading
Personal Weather Stations






























Interactive Weather Map New forecast layout! Learn more

10-Day Weather Forecast

Advertisements
Track Severe Weather on mobile